sensor_id;sensor_type;location;lat;lon;timestamp;temperature;humidity
40255;DHT22;25973;52.368;4.940;2023-05-10T00:01:21;14.60;99.90
40255;DHT22;25973;52.368;4.940;2023-05-10T00:03:46;14.60;99.90
40255;DHT22;25973;52.368;4.940;2023-05-10T00:06:12;14.60;99.90
40255;DHT22;25973;52.368;4.940;2023-05-10T00:08:37;14.60;99.90
40255;DHT22;25973;52.368;4.940;2023-05-10T00:11:03;14.60;99.90
40255;DHT22;25973;52.368;4.940;2023-05-10T00:13:29;14.60;99.90
40255;DHT22;25973;52.368;4.940;2023-05-10T00:15:54;14.60;99.90
40255;DHT22;25973;52.368;4.940;2023-05-10T00:18:20;14.60;99.90
40255;DHT22;25973;52.368;4.940;2023-05-10T00:20:46;14.50;99.90
40255;DHT22;25973;52.368;4.940;2023-05-10T00:23:12;14.60;99.90
40255;DHT22;25973;52.368;4.940;2023-05-10T00:25:37;14.50;99.90
40255;DHT22;25973;52.368;4.940;2023-05-10T00:28:03;14.50;99.90
40255;DHT22;25973;52.368;4.940;2023-05-10T00:30:28;14.50;99.90
40255;DHT22;25973;52.368;4.940;2023-05-10T00:32:54;14.50;99.90
40255;DHT22;25973;52.368;4.940;2023-05-10T00:35:19;14.50;99.90
40255;DHT22;25973;52.368;4.940;2023-05-10T00:37:46;14.50;99.90
40255;DHT22;25973;52.368;4.940;2023-05-10T00:40:12;14.40;99.90
40255;DHT22;25973;52.368;4.940;2023-05-10T00:42:38;14.40;99.90
40255;DHT22;25973;52.368;4.940;2023-05-10T00:45:04;14.40;99.90
40255;DHT22;25973;52.368;4.940;2023-05-10T00:47:30;14.40;99.90
40255;DHT22;25973;52.368;4.940;2023-05-10T00:49:56;14.40;99.90
40255;DHT22;25973;52.368;4.940;2023-05-10T00:52:22;14.40;99.90
40255;DHT22;25973;52.368;4.940;2023-05-10T00:54:50;14.40;99.90
40255;DHT22;25973;52.368;4.940;2023-05-10T00:57:17;14.40;99.90
40255;DHT22;25973;52.368;4.940;2023-05-10T00:59:42;14.40;99.90
40255;DHT22;25973;52.368;4.940;2023-05-10T01:02:08;14.40;99.90
40255;DHT22;25973;52.368;4.940;2023-05-10T01:04:35;14.40;99.90
40255;DHT22;25973;52.368;4.940;2023-05-10T01:07:00;14.40;99.90
40255;DHT22;25973;52.368;4.940;2023-05-10T01:09:27;14.40;99.90
40255;DHT22;25973;52.368;4.940;2023-05-10T01:11:53;14.40;99.90
40255;DHT22;25973;52.368;4.940;2023-05-10T01:14:20;14.40;99.90
40255;DHT22;25973;52.368;4.940;2023-05-10T01:16:47;14.40;99.90
40255;DHT22;25973;52.368;4.940;2023-05-10T01:19:19;14.40;99.90
40255;DHT22;25973;52.368;4.940;2023-05-10T01:22:03;14.40;99.90
40255;DHT22;25973;52.368;4.940;2023-05-10T01:35:39;14.50;99.90
40255;DHT22;25973;52.368;4.940;2023-05-10T01:38:16;14.40;99.90
40255;DHT22;25973;52.368;4.940;2023-05-10T01:40:54;14.50;99.90
40255;DHT22;25973;52.368;4.940;2023-05-10T01:43:33;14.50;99.90
40255;DHT22;25973;52.368;4.940;2023-05-10T01:46:10;14.40;99.90
40255;DHT22;25973;52.368;4.940;2023-05-10T01:48:52;14.50;99.90
40255;DHT22;25973;52.368;4.940;2023-05-10T01:51:22;14.50;99.90
40255;DHT22;25973;52.368;4.940;2023-05-10T01:53:49;14.50;99.90
40255;DHT22;25973;52.368;4.940;2023-05-10T01:56:17;14.50;99.90
40255;DHT22;25973;52.368;4.940;2023-05-10T01:58:47;14.50;99.90
40255;DHT22;25973;52.368;4.940;2023-05-10T02:01:14;14.50;99.90
40255;DHT22;25973;52.368;4.940;2023-05-10T02:03:41;14.50;99.90
40255;DHT22;25973;52.368;4.940;2023-05-10T02:06:09;14.50;99.90
40255;DHT22;25973;52.368;4.940;2023-05-10T02:08:35;14.50;99.90
40255;DHT22;25973;52.368;4.940;2023-05-10T02:11:02;14.50;99.90
40255;DHT22;25973;52.368;4.940;2023-05-10T02:13:29;14.60;99.90
40255;DHT22;25973;52.368;4.940;2023-05-10T02:15:59;14.60;99.90
40255;DHT22;25973;52.368;4.940;2023-05-10T02:18:26;14.60;99.90
40255;DHT22;25973;52.368;4.940;2023-05-10T02:20:53;14.50;99.90
40255;DHT22;25973;52.368;4.940;2023-05-10T02:23:20;14.60;99.90
40255;DHT22;25973;52.368;4.940;2023-05-10T02:25:48;14.50;99.90
40255;DHT22;25973;52.368;4.940;2023-05-10T02:28:14;14.60;99.90
40255;DHT22;25973;52.368;4.940;2023-05-10T02:30:41;14.60;99.90
40255;DHT22;25973;52.368;4.940;2023-05-10T02:33:07;14.50;99.90
40255;DHT22;25973;52.368;4.940;2023-05-10T02:35:34;14.60;99.90
40255;DHT22;25973;52.368;4.940;2023-05-10T02:38:01;14.50;99.90
40255;DHT22;25973;52.368;4.940;2023-05-10T02:40:27;14.50;99.90
40255;DHT22;25973;52.368;4.940;2023-05-10T02:42:55;14.50;99.90
40255;DHT22;25973;52.368;4.940;2023-05-10T02:45:24;14.50;99.90
40255;DHT22;25973;52.368;4.940;2023-05-10T02:47:52;14.50;99.90
40255;DHT22;25973;52.368;4.940;2023-05-10T02:50:18;14.50;99.90
40255;DHT22;25973;52.368;4.940;2023-05-10T02:52:46;14.40;99.90
40255;DHT22;25973;52.368;4.940;2023-05-10T02:55:15;14.40;99.90
40255;DHT22;25973;52.368;4.940;2023-05-10T02:57:48;14.30;99.90
40255;DHT22;25973;52.368;4.940;2023-05-10T03:00:16;14.30;99.90
40255;DHT22;25973;52.368;4.940;2023-05-10T03:02:41;14.20;99.90
40255;DHT22;25973;52.368;4.940;2023-05-10T03:05:07;14.20;99.90
40255;DHT22;25973;52.368;4.940;2023-05-10T03:07:33;14.20;99.90
40255;DHT22;25973;52.368;4.940;2023-05-10T03:09:59;14.10;99.90
40255;DHT22;25973;52.368;4.940;2023-05-10T03:16:08;14.20;99.90
40255;DHT22;25973;52.368;4.940;2023-05-10T03:18:12;14.20;99.90
40255;DHT22;25973;52.368;4.940;2023-05-10T03:20:49;14.20;99.90
40255;DHT22;25973;52.368;4.940;2023-05-10T03:25:50;14.30;99.90
40255;DHT22;25973;52.368;4.940;2023-05-10T03:28:17;14.30;99.90
40255;DHT22;25973;52.368;4.940;2023-05-10T03:30:43;14.20;99.90
40255;DHT22;25973;52.368;4.940;2023-05-10T03:33:10;14.30;99.90
40255;DHT22;25973;52.368;4.940;2023-05-10T03:35:36;14.20;99.90
40255;DHT22;25973;52.368;4.940;2023-05-10T03:38:01;14.10;99.90
40255;DHT22;25973;52.368;4.940;2023-05-10T03:40:28;14.10;99.90
40255;DHT22;25973;52.368;4.940;2023-05-10T03:42:56;14.00;99.90
40255;DHT22;25973;52.368;4.940;2023-05-10T03:45:22;13.90;99.90
40255;DHT22;25973;52.368;4.940;2023-05-10T03:47:47;13.80;99.90
40255;DHT22;25973;52.368;4.940;2023-05-10T03:50:13;13.80;99.90
40255;DHT22;25973;52.368;4.940;2023-05-10T03:52:38;13.70;99.90
40255;DHT22;25973;52.368;4.940;2023-05-10T03:55:05;13.70;99.90
40255;DHT22;25973;52.368;4.940;2023-05-10T03:57:31;13.60;99.90
40255;DHT22;25973;52.368;4.940;2023-05-10T03:59:57;13.60;99.90
40255;DHT22;25973;52.368;4.940;2023-05-10T04:02:23;13.60;99.90
40255;DHT22;25973;52.368;4.940;2023-05-10T04:04:48;13.60;99.90
40255;DHT22;25973;52.368;4.940;2023-05-10T04:07:14;13.60;99.90
40255;DHT22;25973;52.368;4.940;2023-05-10T04:09:40;13.50;99.90
40255;DHT22;25973;52.368;4.940;2023-05-10T04:12:05;13.60;99.90
40255;DHT22;25973;52.368;4.940;2023-05-10T04:14:31;13.50;99.90
40255;DHT22;25973;52.368;4.940;2023-05-10T04:16:57;13.60;99.90
40255;DHT22;25973;52.368;4.940;2023-05-10T04:19:22;13.60;99.90
40255;DHT22;25973;52.368;4.940;2023-05-10T04:21:48;13.60;99.90
40255;DHT22;25973;52.368;4.940;2023-05-10T04:24:14;13.60;99.90
40255;DHT22;25973;52.368;4.940;2023-05-10T04:26:40;13.60;99.90
40255;DHT22;25973;52.368;4.940;2023-05-10T04:29:05;13.60;99.90
40255;DHT22;25973;52.368;4.940;2023-05-10T04:31:31;13.60;99.90
40255;DHT22;25973;52.368;4.940;2023-05-10T04:33:57;13.60;99.90
40255;DHT22;25973;52.368;4.940;2023-05-10T04:36:22;13.70;99.90
40255;DHT22;25973;52.368;4.940;2023-05-10T04:38:48;13.70;99.90
40255;DHT22;25973;52.368;4.940;2023-05-10T04:41:13;13.80;99.90
40255;DHT22;25973;52.368;4.940;2023-05-10T04:43:39;13.80;99.90
40255;DHT22;25973;52.368;4.940;2023-05-10T04:46:05;13.90;99.90
40255;DHT22;25973;52.368;4.940;2023-05-10T04:48:31;13.90;99.90
40255;DHT22;25973;52.368;4.940;2023-05-10T04:50:56;13.90;99.90
40255;DHT22;25973;52.368;4.940;2023-05-10T04:53:22;13.90;99.90
40255;DHT22;25973;52.368;4.940;2023-05-10T04:55:48;13.90;99.90
40255;DHT22;25973;52.368;4.940;2023-05-10T04:58:14;14.00;99.90
40255;DHT22;25973;52.368;4.940;2023-05-10T05:00:39;14.00;99.90
40255;DHT22;25973;52.368;4.940;2023-05-10T05:03:05;14.00;99.90
40255;DHT22;25973;52.368;4.940;2023-05-10T05:05:31;14.00;99.90
40255;DHT22;25973;52.368;4.940;2023-05-10T05:07:57;14.00;99.90
40255;DHT22;25973;52.368;4.940;2023-05-10T05:10:22;13.90;99.90
40255;DHT22;25973;52.368;4.940;2023-05-10T05:12:48;13.90;99.90
40255;DHT22;25973;52.368;4.940;2023-05-10T05:15:13;13.90;99.90
40255;DHT22;25973;52.368;4.940;2023-05-10T05:17:40;13.90;99.90
40255;DHT22;25973;52.368;4.940;2023-05-10T05:20:06;13.90;99.90
40255;DHT22;25973;52.368;4.940;2023-05-10T05:22:32;13.80;99.90
40255;DHT22;25973;52.368;4.940;2023-05-10T05:24:58;13.80;99.90
40255;DHT22;25973;52.368;4.940;2023-05-10T05:27:24;13.80;99.90
40255;DHT22;25973;52.368;4.940;2023-05-10T05:29:54;13.80;99.90
40255;DHT22;25973;52.368;4.940;2023-05-10T05:32:20;13.80;99.90
40255;DHT22;25973;52.368;4.940;2023-05-10T05:34:46;13.80;99.90
40255;DHT22;25973;52.368;4.940;2023-05-10T05:37:16;13.80;99.90
40255;DHT22;25973;52.368;4.940;2023-05-10T05:39:42;13.70;99.90
40255;DHT22;25973;52.368;4.940;2023-05-10T05:42:09;13.70;99.90
40255;DHT22;25973;52.368;4.940;2023-05-10T05:44:34;13.60;99.90
40255;DHT22;25973;52.368;4.940;2023-05-10T05:47:00;13.70;99.90
40255;DHT22;25973;52.368;4.940;2023-05-10T05:49:25;13.70;99.90
40255;DHT22;25973;52.368;4.940;2023-05-10T05:51:51;13.80;99.90
40255;DHT22;25973;52.368;4.940;2023-05-10T05:54:17;13.80;99.90
40255;DHT22;25973;52.368;4.940;2023-05-10T05:56:42;13.90;99.90
40255;DHT22;25973;52.368;4.940;2023-05-10T05:59:09;14.00;99.90
40255;DHT22;25973;52.368;4.940;2023-05-10T06:01:35;14.10;99.90
40255;DHT22;25973;52.368;4.940;2023-05-10T06:04:01;14.10;99.90
40255;DHT22;25973;52.368;4.940;2023-05-10T06:06:27;14.20;99.90
40255;DHT22;25973;52.368;4.940;2023-05-10T06:08:53;14.30;99.90
40255;DHT22;25973;52.368;4.940;2023-05-10T06:11:18;14.20;99.90
40255;DHT22;25973;52.368;4.940;2023-05-10T06:13:44;14.20;99.90
40255;DHT22;25973;52.368;4.940;2023-05-10T06:16:09;14.10;99.90
40255;DHT22;25973;52.368;4.940;2023-05-10T06:18:35;14.10;99.90
40255;DHT22;25973;52.368;4.940;2023-05-10T06:21:01;14.10;99.90
40255;DHT22;25973;52.368;4.940;2023-05-10T06:23:27;14.00;99.90
40255;DHT22;25973;52.368;4.940;2023-05-10T06:25:52;14.00;99.90
40255;DHT22;25973;52.368;4.940;2023-05-10T06:28:18;14.00;99.90
40255;DHT22;25973;52.368;4.940;2023-05-10T06:30:43;14.10;99.90
40255;DHT22;25973;52.368;4.940;2023-05-10T06:33:09;14.10;99.90
40255;DHT22;25973;52.368;4.940;2023-05-10T06:35:35;14.10;99.90
40255;DHT22;25973;52.368;4.940;2023-05-10T06:38:02;14.00;99.90
40255;DHT22;25973;52.368;4.940;2023-05-10T06:40:27;14.00;99.90
40255;DHT22;25973;52.368;4.940;2023-05-10T06:42:53;14.00;99.90
40255;DHT22;25973;52.368;4.940;2023-05-10T06:45:18;14.00;99.90
40255;DHT22;25973;52.368;4.940;2023-05-10T06:47:45;14.00;99.90
40255;DHT22;25973;52.368;4.940;2023-05-10T06:50:11;14.00;99.90
40255;DHT22;25973;52.368;4.940;2023-05-10T06:52:37;14.00;99.90
40255;DHT22;25973;52.368;4.940;2023-05-10T06:55:03;14.00;99.90
40255;DHT22;25973;52.368;4.940;2023-05-10T06:57:29;14.00;99.90
40255;DHT22;25973;52.368;4.940;2023-05-10T06:59:54;14.00;99.90
40255;DHT22;25973;52.368;4.940;2023-05-10T07:02:21;14.00;99.90
40255;DHT22;25973;52.368;4.940;2023-05-10T07:04:48;14.00;99.90
40255;DHT22;25973;52.368;4.940;2023-05-10T07:07:14;14.00;99.90
40255;DHT22;25973;52.368;4.940;2023-05-10T07:09:39;14.00;99.90
40255;DHT22;25973;52.368;4.940;2023-05-10T07:12:05;14.10;99.90
40255;DHT22;25973;52.368;4.940;2023-05-10T07:14:31;14.20;99.90
40255;DHT22;25973;52.368;4.940;2023-05-10T07:16:56;14.30;99.90
40255;DHT22;25973;52.368;4.940;2023-05-10T07:19:22;14.30;99.90
40255;DHT22;25973;52.368;4.940;2023-05-10T07:21:47;14.30;99.90
40255;DHT22;25973;52.368;4.940;2023-05-10T07:24:13;14.30;99.90
40255;DHT22;25973;52.368;4.940;2023-05-10T07:26:38;14.30;99.90
40255;DHT22;25973;52.368;4.940;2023-05-10T07:29:04;14.40;99.90
40255;DHT22;25973;52.368;4.940;2023-05-10T07:31:30;14.40;99.90
40255;DHT22;25973;52.368;4.940;2023-05-10T07:33:55;14.40;99.90
40255;DHT22;25973;52.368;4.940;2023-05-10T07:36:21;14.50;99.90
40255;DHT22;25973;52.368;4.940;2023-05-10T07:38:46;14.60;99.90
40255;DHT22;25973;52.368;4.940;2023-05-10T07:41:12;14.50;99.90
40255;DHT22;25973;52.368;4.940;2023-05-10T07:43:37;14.50;99.90
40255;DHT22;25973;52.368;4.940;2023-05-10T07:46:03;14.50;99.90
40255;DHT22;25973;52.368;4.940;2023-05-10T07:48:29;14.70;99.90
40255;DHT22;25973;52.368;4.940;2023-05-10T07:50:54;14.70;99.90
40255;DHT22;25973;52.368;4.940;2023-05-10T07:53:20;14.70;99.90
40255;DHT22;25973;52.368;4.940;2023-05-10T07:55:57;14.80;99.90
40255;DHT22;25973;52.368;4.940;2023-05-10T07:58:24;14.90;99.90
40255;DHT22;25973;52.368;4.940;2023-05-10T08:00:50;14.90;99.90
40255;DHT22;25973;52.368;4.940;2023-05-10T08:03:15;15.10;99.90
40255;DHT22;25973;52.368;4.940;2023-05-10T08:05:41;15.20;99.90
40255;DHT22;25973;52.368;4.940;2023-05-10T08:08:06;15.40;99.90
40255;DHT22;25973;52.368;4.940;2023-05-10T08:10:32;15.60;99.90
40255;DHT22;25973;52.368;4.940;2023-05-10T08:12:57;15.70;99.90
40255;DHT22;25973;52.368;4.940;2023-05-10T08:15:24;15.80;99.90
40255;DHT22;25973;52.368;4.940;2023-05-10T08:17:51;15.80;99.90
40255;DHT22;25973;52.368;4.940;2023-05-10T08:20:17;15.80;99.90
40255;DHT22;25973;52.368;4.940;2023-05-10T08:22:45;15.60;99.90
40255;DHT22;25973;52.368;4.940;2023-05-10T08:25:10;15.60;99.90
40255;DHT22;25973;52.368;4.940;2023-05-10T08:27:36;15.60;99.90
40255;DHT22;25973;52.368;4.940;2023-05-10T08:30:02;15.70;99.90
40255;DHT22;25973;52.368;4.940;2023-05-10T08:32:27;15.90;99.90
40255;DHT22;25973;52.368;4.940;2023-05-10T08:34:53;15.90;99.90
40255;DHT22;25973;52.368;4.940;2023-05-10T08:37:18;15.90;99.90
40255;DHT22;25973;52.368;4.940;2023-05-10T08:39:44;16.00;99.90
40255;DHT22;25973;52.368;4.940;2023-05-10T08:42:16;16.00;99.90
40255;DHT22;25973;52.368;4.940;2023-05-10T08:44:44;16.10;99.90
40255;DHT22;25973;52.368;4.940;2023-05-10T08:47:11;16.10;99.90
40255;DHT22;25973;52.368;4.940;2023-05-10T08:49:38;16.00;99.90
40255;DHT22;25973;52.368;4.940;2023-05-10T08:52:05;15.90;99.90
40255;DHT22;25973;52.368;4.940;2023-05-10T08:54:33;15.90;99.90
40255;DHT22;25973;52.368;4.940;2023-05-10T08:56:59;15.70;99.90
40255;DHT22;25973;52.368;4.940;2023-05-10T08:59:25;15.60;99.90
40255;DHT22;25973;52.368;4.940;2023-05-10T09:01:51;15.60;99.90
40255;DHT22;25973;52.368;4.940;2023-05-10T09:04:19;15.70;99.90
40255;DHT22;25973;52.368;4.940;2023-05-10T09:06:45;15.90;99.90
40255;DHT22;25973;52.368;4.940;2023-05-10T09:09:10;16.10;99.90
40255;DHT22;25973;52.368;4.940;2023-05-10T09:11:37;16.40;99.90
40255;DHT22;25973;52.368;4.940;2023-05-10T09:14:02;16.60;99.90
40255;DHT22;25973;52.368;4.940;2023-05-10T09:16:28;16.60;99.90
40255;DHT22;25973;52.368;4.940;2023-05-10T09:18:54;16.70;99.90
40255;DHT22;25973;52.368;4.940;2023-05-10T09:21:20;17.00;99.90
40255;DHT22;25973;52.368;4.940;2023-05-10T09:23:46;17.30;99.90
40255;DHT22;25973;52.368;4.940;2023-05-10T09:26:15;17.70;99.90
40255;DHT22;25973;52.368;4.940;2023-05-10T09:29:00;18.00;99.90
40255;DHT22;25973;52.368;4.940;2023-05-10T09:31:50;18.00;99.90
40255;DHT22;25973;52.368;4.940;2023-05-10T09:34:18;18.00;99.90
40255;DHT22;25973;52.368;4.940;2023-05-10T09:36:55;18.00;99.90
40255;DHT22;25973;52.368;4.940;2023-05-10T09:39:33;17.90;99.90
40255;DHT22;25973;52.368;4.940;2023-05-10T09:41:59;17.60;99.90
40255;DHT22;25973;52.368;4.940;2023-05-10T09:44:26;17.50;99.90
40255;DHT22;25973;52.368;4.940;2023-05-10T09:46:52;17.40;99.90
40255;DHT22;25973;52.368;4.940;2023-05-10T09:49:22;17.20;99.90
40255;DHT22;25973;52.368;4.940;2023-05-10T09:51:57;17.10;99.90
40255;DHT22;25973;52.368;4.940;2023-05-10T09:54:24;17.00;99.90
40255;DHT22;25973;52.368;4.940;2023-05-10T09:56:50;17.00;99.90
40255;DHT22;25973;52.368;4.940;2023-05-10T09:59:15;16.90;99.90
40255;DHT22;25973;52.368;4.940;2023-05-10T10:01:42;16.80;99.90
40255;DHT22;25973;52.368;4.940;2023-05-10T10:04:14;16.70;99.90
40255;DHT22;25973;52.368;4.940;2023-05-10T10:06:40;16.60;99.90
40255;DHT22;25973;52.368;4.940;2023-05-10T10:09:06;16.50;99.90
40255;DHT22;25973;52.368;4.940;2023-05-10T10:11:35;16.50;99.90
40255;DHT22;25973;52.368;4.940;2023-05-10T10:14:01;16.50;99.90
40255;DHT22;25973;52.368;4.940;2023-05-10T10:16:31;16.50;99.90
40255;DHT22;25973;52.368;4.940;2023-05-10T10:18:57;16.40;99.90
40255;DHT22;25973;52.368;4.940;2023-05-10T10:21:23;16.30;99.90
40255;DHT22;25973;52.368;4.940;2023-05-10T10:23:49;16.30;99.90
40255;DHT22;25973;52.368;4.940;2023-05-10T10:26:16;16.50;99.90
40255;DHT22;25973;52.368;4.940;2023-05-10T10:34:06;16.70;99.90
40255;DHT22;25973;52.368;4.940;2023-05-10T10:36:39;16.60;99.90
40255;DHT22;25973;52.368;4.940;2023-05-10T10:39:09;16.50;99.90
40255;DHT22;25973;52.368;4.940;2023-05-10T10:41:55;16.50;99.90
40255;DHT22;25973;52.368;4.940;2023-05-10T10:44:36;16.50;99.90
40255;DHT22;25973;52.368;4.940;2023-05-10T10:49:50;16.50;99.90
40255;DHT22;25973;52.368;4.940;2023-05-10T10:57:50;16.50;99.90
40255;DHT22;25973;52.368;4.940;2023-05-10T11:00:29;16.50;99.90
40255;DHT22;25973;52.368;4.940;2023-05-10T11:03:07;16.50;99.90
40255;DHT22;25973;52.368;4.940;2023-05-10T11:05:37;16.50;99.90
40255;DHT22;25973;52.368;4.940;2023-05-10T11:08:42;16.50;99.90
40255;DHT22;25973;52.368;4.940;2023-05-10T11:11:14;16.50;99.90
40255;DHT22;25973;52.368;4.940;2023-05-10T11:16:11;16.40;99.90
40255;DHT22;25973;52.368;4.940;2023-05-10T11:18:37;16.50;99.90
40255;DHT22;25973;52.368;4.940;2023-05-10T11:21:03;16.60;99.90
40255;DHT22;25973;52.368;4.940;2023-05-10T11:23:49;16.60;99.90
40255;DHT22;25973;52.368;4.940;2023-05-10T11:26:15;16.50;99.90
40255;DHT22;25973;52.368;4.940;2023-05-10T11:28:51;16.60;99.90
40255;DHT22;25973;52.368;4.940;2023-05-10T11:31:18;16.60;99.90
40255;DHT22;25973;52.368;4.940;2023-05-10T11:33:50;16.60;99.90
40255;DHT22;25973;52.368;4.940;2023-05-10T11:36:18;16.60;99.90
40255;DHT22;25973;52.368;4.940;2023-05-10T11:38:44;16.60;99.90
40255;DHT22;25973;52.368;4.940;2023-05-10T11:41:13;16.60;99.90
40255;DHT22;25973;52.368;4.940;2023-05-10T11:43:39;16.70;99.90
40255;DHT22;25973;52.368;4.940;2023-05-10T11:46:10;16.70;99.90
40255;DHT22;25973;52.368;4.940;2023-05-10T11:48:38;16.70;99.90
40255;DHT22;25973;52.368;4.940;2023-05-10T11:51:03;16.70;99.90
40255;DHT22;25973;52.368;4.940;2023-05-10T11:53:30;16.60;99.90
40255;DHT22;25973;52.368;4.940;2023-05-10T11:56:05;16.60;99.90
40255;DHT22;25973;52.368;4.940;2023-05-10T11:58:32;16.60;99.90
40255;DHT22;25973;52.368;4.940;2023-05-10T12:00:59;16.60;99.90
40255;DHT22;25973;52.368;4.940;2023-05-10T12:03:25;16.60;99.90
40255;DHT22;25973;52.368;4.940;2023-05-10T12:05:51;16.60;99.90
40255;DHT22;25973;52.368;4.940;2023-05-10T12:08:26;16.50;99.90
40255;DHT22;25973;52.368;4.940;2023-05-10T12:10:53;16.40;99.90
40255;DHT22;25973;52.368;4.940;2023-05-10T12:13:20;16.50;99.90
40255;DHT22;25973;52.368;4.940;2023-05-10T12:15:46;16.60;99.90
40255;DHT22;25973;52.368;4.940;2023-05-10T12:18:13;16.70;99.90
40255;DHT22;25973;52.368;4.940;2023-05-10T12:20:40;16.80;99.90
40255;DHT22;25973;52.368;4.940;2023-05-10T12:23:08;16.90;99.90
40255;DHT22;25973;52.368;4.940;2023-05-10T12:25:36;17.00;99.90
40255;DHT22;25973;52.368;4.940;2023-05-10T12:28:07;17.00;99.90
40255;DHT22;25973;52.368;4.940;2023-05-10T12:30:34;17.10;99.90
40255;DHT22;25973;52.368;4.940;2023-05-10T12:33:09;17.10;99.90
40255;DHT22;25973;52.368;4.940;2023-05-10T12:35:44;17.00;99.90
40255;DHT22;25973;52.368;4.940;2023-05-10T12:38:32;17.00;99.90
40255;DHT22;25973;52.368;4.940;2023-05-10T12:41:03;17.10;99.90
40255;DHT22;25973;52.368;4.940;2023-05-10T12:43:29;17.20;99.90
40255;DHT22;25973;52.368;4.940;2023-05-10T12:45:55;17.20;99.90
40255;DHT22;25973;52.368;4.940;2023-05-10T12:48:21;17.40;99.90
40255;DHT22;25973;52.368;4.940;2023-05-10T12:50:47;17.50;99.90
40255;DHT22;25973;52.368;4.940;2023-05-10T12:53:16;17.50;99.90
40255;DHT22;25973;52.368;4.940;2023-05-10T12:55:43;17.40;99.90
40255;DHT22;25973;52.368;4.940;2023-05-10T12:58:08;17.40;99.90
40255;DHT22;25973;52.368;4.940;2023-05-10T13:00:34;17.50;99.90
40255;DHT22;25973;52.368;4.940;2023-05-10T13:03:00;17.40;99.90
40255;DHT22;25973;52.368;4.940;2023-05-10T13:05:25;17.30;99.90
40255;DHT22;25973;52.368;4.940;2023-05-10T13:07:51;17.20;99.90
40255;DHT22;25973;52.368;4.940;2023-05-10T13:10:16;17.10;99.90
40255;DHT22;25973;52.368;4.940;2023-05-10T13:12:42;17.10;99.90
40255;DHT22;25973;52.368;4.940;2023-05-10T13:15:08;17.20;99.90
40255;DHT22;25973;52.368;4.940;2023-05-10T13:17:33;17.20;99.90
40255;DHT22;25973;52.368;4.940;2023-05-10T13:19:59;17.40;99.90
40255;DHT22;25973;52.368;4.940;2023-05-10T13:22:25;17.40;99.90
40255;DHT22;25973;52.368;4.940;2023-05-10T13:24:50;17.40;99.90
40255;DHT22;25973;52.368;4.940;2023-05-10T13:27:16;17.30;99.90
40255;DHT22;25973;52.368;4.940;2023-05-10T13:29:41;17.30;99.90
40255;DHT22;25973;52.368;4.940;2023-05-10T13:32:07;17.20;99.90
40255;DHT22;25973;52.368;4.940;2023-05-10T13:34:32;17.20;99.90
40255;DHT22;25973;52.368;4.940;2023-05-10T13:36:58;17.20;99.90
40255;DHT22;25973;52.368;4.940;2023-05-10T13:39:23;17.20;99.90
40255;DHT22;25973;52.368;4.940;2023-05-10T13:41:49;17.10;99.90
40255;DHT22;25973;52.368;4.940;2023-05-10T13:44:15;17.10;99.90
40255;DHT22;25973;52.368;4.940;2023-05-10T13:46:41;17.20;99.90
40255;DHT22;25973;52.368;4.940;2023-05-10T13:49:08;17.10;99.90
40255;DHT22;25973;52.368;4.940;2023-05-10T13:51:35;17.10;99.90
40255;DHT22;25973;52.368;4.940;2023-05-10T13:54:01;17.20;99.90
40255;DHT22;25973;52.368;4.940;2023-05-10T13:56:27;17.30;99.90
40255;DHT22;25973;52.368;4.940;2023-05-10T13:58:52;17.40;99.90
40255;DHT22;25973;52.368;4.940;2023-05-10T14:01:18;17.40;99.90
40255;DHT22;25973;52.368;4.940;2023-05-10T14:03:44;17.50;99.90
40255;DHT22;25973;52.368;4.940;2023-05-10T14:06:10;17.60;99.90
40255;DHT22;25973;52.368;4.940;2023-05-10T14:08:35;17.60;99.90
40255;DHT22;25973;52.368;4.940;2023-05-10T14:11:01;17.60;99.90
40255;DHT22;25973;52.368;4.940;2023-05-10T14:13:27;17.60;99.90
40255;DHT22;25973;52.368;4.940;2023-05-10T14:15:53;17.60;99.90
40255;DHT22;25973;52.368;4.940;2023-05-10T14:18:19;17.80;99.90
40255;DHT22;25973;52.368;4.940;2023-05-10T14:20:45;17.80;99.90
40255;DHT22;25973;52.368;4.940;2023-05-10T14:23:11;17.80;99.90
40255;DHT22;25973;52.368;4.940;2023-05-10T14:25:37;17.70;99.90
40255;DHT22;25973;52.368;4.940;2023-05-10T14:28:03;17.60;99.90
40255;DHT22;25973;52.368;4.940;2023-05-10T14:30:29;17.60;99.90
40255;DHT22;25973;52.368;4.940;2023-05-10T14:32:54;17.60;99.90
40255;DHT22;25973;52.368;4.940;2023-05-10T14:35:20;17.60;99.90
40255;DHT22;25973;52.368;4.940;2023-05-10T14:37:46;17.60;99.90
40255;DHT22;25973;52.368;4.940;2023-05-10T14:40:12;17.60;99.90
40255;DHT22;25973;52.368;4.940;2023-05-10T14:42:38;17.50;99.90
40255;DHT22;25973;52.368;4.940;2023-05-10T14:45:04;17.40;99.90
40255;DHT22;25973;52.368;4.940;2023-05-10T14:47:29;17.30;99.90
40255;DHT22;25973;52.368;4.940;2023-05-10T14:49:55;17.30;99.90
40255;DHT22;25973;52.368;4.940;2023-05-10T14:52:21;17.30;99.90
40255;DHT22;25973;52.368;4.940;2023-05-10T14:54:46;17.30;99.90
40255;DHT22;25973;52.368;4.940;2023-05-10T14:57:12;17.20;99.90
40255;DHT22;25973;52.368;4.940;2023-05-10T14:59:38;17.20;99.90
40255;DHT22;25973;52.368;4.940;2023-05-10T15:02:03;17.20;99.90
40255;DHT22;25973;52.368;4.940;2023-05-10T15:04:29;17.20;99.90
40255;DHT22;25973;52.368;4.940;2023-05-10T15:06:55;17.30;99.90
40255;DHT22;25973;52.368;4.940;2023-05-10T15:09:24;17.20;99.90
40255;DHT22;25973;52.368;4.940;2023-05-10T15:11:50;17.20;99.90
40255;DHT22;25973;52.368;4.940;2023-05-10T15:14:16;17.20;99.90
40255;DHT22;25973;52.368;4.940;2023-05-10T15:16:41;17.20;99.90
40255;DHT22;25973;52.368;4.940;2023-05-10T15:19:07;17.10;99.90
40255;DHT22;25973;52.368;4.940;2023-05-10T15:21:32;17.00;99.90
40255;DHT22;25973;52.368;4.940;2023-05-10T15:24:07;16.90;99.90
40255;DHT22;25973;52.368;4.940;2023-05-10T15:26:32;16.90;99.90
40255;DHT22;25973;52.368;4.940;2023-05-10T15:28:58;16.80;99.90
40255;DHT22;25973;52.368;4.940;2023-05-10T15:31:24;16.90;99.90
40255;DHT22;25973;52.368;4.940;2023-05-10T15:33:49;16.90;99.90
40255;DHT22;25973;52.368;4.940;2023-05-10T15:36:15;16.90;99.90
40255;DHT22;25973;52.368;4.940;2023-05-10T15:38:43;16.80;99.90
40255;DHT22;25973;52.368;4.940;2023-05-10T15:41:08;16.70;99.90
40255;DHT22;25973;52.368;4.940;2023-05-10T15:43:34;16.60;99.90
40255;DHT22;25973;52.368;4.940;2023-05-10T15:45:59;16.60;99.90
40255;DHT22;25973;52.368;4.940;2023-05-10T15:48:25;16.50;99.90
40255;DHT22;25973;52.368;4.940;2023-05-10T15:50:51;16.50;99.90
40255;DHT22;25973;52.368;4.940;2023-05-10T15:53:16;16.50;99.90
40255;DHT22;25973;52.368;4.940;2023-05-10T15:55:42;16.50;99.90
40255;DHT22;25973;52.368;4.940;2023-05-10T15:58:07;16.50;99.90
40255;DHT22;25973;52.368;4.940;2023-05-10T16:00:33;16.60;99.90
40255;DHT22;25973;52.368;4.940;2023-05-10T16:02:58;16.70;99.90